Time;durP1;ratioP1;P1;durP2;ratioP2;P2;SDS_P1;SDS_P2;PMS_P1;PMS_P2;Temp;Humidity;BMP_temperature;BMP_pressure;BME280_temperature;BME280_humidity;BME280_pressure;Samples;Min_cycle;Max_cycle;Signal;HPM_P1;HPM_P2
2023/12/20 00:01:23;;;;;;;6.90;2.60;;;6.30;99.90;;;;;;4998268;28;20851;-64
2023/12/20 00:03:51;;;;;;;8.03;2.00;;;6.30;99.90;;;;;;4999597;28;20850;-64
2023/12/20 00:06:19;;;;;;;7.43;2.10;;;6.30;99.90;;;;;;4999658;28;20484;-64
2023/12/20 00:08:47;;;;;;;3.70;1.70;;;6.30;99.90;;;;;;4998219;28;21012;-64
2023/12/20 00:11:15;;;;;;;7.67;2.03;;;6.30;99.90;;;;;;4979902;28;20562;-64
2023/12/20 00:13:43;;;;;;;5.00;1.73;;;6.30;99.90;;;;;;4981845;28;20543;-64
2023/12/20 00:16:15;;;;;;;6.47;2.03;;;6.20;99.90;;;;;;4980768;28;20627;-63
2023/12/20 00:18:43;;;;;;;5.47;1.70;;;6.20;99.90;;;;;;4980676;28;20512;-64
2023/12/20 00:21:12;;;;;;;5.57;1.43;;;6.20;99.90;;;;;;4980007;28;20465;-64
2023/12/20 00:23:40;;;;;;;6.20;1.70;;;6.10;99.90;;;;;;4980634;28;20505;-64
2023/12/20 00:26:08;;;;;;;9.80;2.10;;;6.10;99.90;;;;;;4981120;28;20917;-64
2023/12/20 00:28:36;;;;;;;5.93;1.90;;;6.10;99.90;;;;;;4981265;28;20521;-64
2023/12/20 00:31:04;;;;;;;5.93;1.53;;;6.10;99.90;;;;;;4981977;28;20497;-63
2023/12/20 00:33:33;;;;;;;3.60;1.73;;;6.10;99.90;;;;;;4983872;28;20621;-64
2023/12/20 00:36:02;;;;;;;7.83;2.17;;;6.10;99.90;;;;;;4981667;28;20469;-64
2023/12/20 00:38:30;;;;;;;8.07;1.87;;;6.20;99.90;;;;;;4980817;28;21042;-63
2023/12/20 00:40:58;;;;;;;5.50;2.00;;;6.20;99.90;;;;;;4978797;28;20583;-64
2023/12/20 00:43:26;;;;;;;6.90;1.80;;;6.20;99.90;;;;;;4973189;28;20734;-64
2023/12/20 00:45:55;;;;;;;7.93;3.37;;;6.20;99.90;;;;;;4979053;28;20466;-63
2023/12/20 00:48:23;;;;;;;7.70;2.30;;;6.20;99.90;;;;;;4978943;28;20473;-63
2023/12/20 00:50:52;;;;;;;9.37;2.00;;;6.20;99.90;;;;;;4979961;28;20492;-63
2023/12/20 00:53:20;;;;;;;9.43;1.70;;;6.20;99.90;;;;;;4980292;28;20482;-63
2023/12/20 00:55:48;;;;;;;6.30;1.57;;;6.20;99.90;;;;;;4979514;28;21023;-63
2023/12/20 00:58:17;;;;;;;5.23;2.30;;;6.20;99.90;;;;;;4979284;28;20471;-64
2023/12/20 01:00:45;;;;;;;7.47;2.00;;;6.20;99.90;;;;;;4978374;28;20501;-64
2023/12/20 01:03:14;;;;;;;5.60;1.53;;;6.20;99.90;;;;;;4977358;28;20900;-63
2023/12/20 01:05:42;;;;;;;3.70;2.00;;;6.20;99.90;;;;;;4975327;28;20465;-64
2023/12/20 01:08:12;;;;;;;5.70;2.40;;;6.20;99.90;;;;;;4978072;28;20542;-64
2023/12/20 01:10:40;;;;;;;12.53;2.50;;;6.20;99.90;;;;;;4979899;28;20595;-64
2023/12/20 01:13:08;;;;;;;3.33;1.80;;;6.20;99.90;;;;;;4977858;28;21134;-64
2023/12/20 01:15:37;;;;;;;7.80;2.67;;;6.10;99.90;;;;;;4979670;28;20469;-64
2023/12/20 01:18:05;;;;;;;8.13;2.00;;;6.10;99.90;;;;;;4980056;28;20919;-64
2023/12/20 01:20:33;;;;;;;5.73;1.70;;;6.10;99.90;;;;;;4979638;28;20580;-64
2023/12/20 01:23:01;;;;;;;8.43;2.00;;;6.00;99.90;;;;;;4979231;28;20560;-64
2023/12/20 01:25:31;;;;;;;5.13;1.70;;;6.00;99.90;;;;;;4972456;28;20470;-63
2023/12/20 01:27:59;;;;;;;4.67;1.90;;;6.00;99.90;;;;;;4979069;28;20501;-63
2023/12/20 01:30:27;;;;;;;7.27;1.90;;;6.00;99.90;;;;;;4977328;28;20970;-63
2023/12/20 01:32:55;;;;;;;6.40;1.63;;;6.00;99.90;;;;;;4978229;28;20560;-64
2023/12/20 01:35:23;;;;;;;5.83;1.87;;;5.90;99.90;;;;;;4979619;28;20477;-64
2023/12/20 01:37:51;;;;;;;10.07;2.27;;;5.90;99.90;;;;;;4978036;28;20476;-64
2023/12/20 01:40:20;;;;;;;9.47;2.00;;;5.90;99.90;;;;;;4977460;28;20895;-64
2023/12/20 01:42:59;;;;;;;6.63;2.30;;;5.90;99.90;;;;;;4978148;28;20473;-63
2023/12/20 01:45:27;;;;;;;10.13;2.27;;;5.90;99.90;;;;;;4976610;28;20985;-64
2023/12/20 01:47:56;;;;;;;3.77;1.50;;;5.80;99.90;;;;;;4979674;28;20470;-64
2023/12/20 01:50:24;;;;;;;6.03;1.87;;;5.80;99.90;;;;;;4991381;28;20584;-64
2023/12/20 01:52:57;;;;;;;6.73;1.60;;;5.80;99.90;;;;;;4998643;28;20472;-64
2023/12/20 01:55:26;;;;;;;6.40;2.57;;;5.80;99.90;;;;;;4994864;28;20902;-64
2023/12/20 01:57:55;;;;;;;6.37;1.80;;;5.80;99.90;;;;;;4993534;28;20480;-64
2023/12/20 02:00:26;;;;;;;6.60;1.60;;;5.80;99.90;;;;;;4997779;28;20963;-63
2023/12/20 02:02:55;;;;;;;6.63;2.00;;;5.80;99.90;;;;;;4997730;28;20475;-64
2023/12/20 02:05:23;;;;;;;8.90;1.90;;;5.80;99.90;;;;;;4992450;28;20468;-64
2023/12/20 02:07:51;;;;;;;9.40;2.03;;;5.80;99.90;;;;;;4997600;28;20477;-64
2023/12/20 02:10:19;;;;;;;6.30;2.13;;;5.80;99.90;;;;;;4982875;28;20676;-64
2023/12/20 02:12:47;;;;;;;4.57;1.70;;;5.80;99.90;;;;;;4978516;28;20502;-64
2023/12/20 02:15:17;;;;;;;4.30;1.67;;;5.80;99.90;;;;;;4977101;28;20482;-64
2023/12/20 02:17:46;;;;;;;7.90;2.73;;;5.80;99.90;;;;;;4977835;28;20919;-63
2023/12/20 02:20:14;;;;;;;4.07;1.60;;;5.80;99.90;;;;;;4989758;28;20633;-64
2023/12/20 02:22:44;;;;;;;5.37;1.80;;;5.80;99.90;;;;;;4998559;28;20538;-64
2023/12/20 02:25:12;;;;;;;5.33;1.73;;;5.80;99.90;;;;;;4995608;28;21033;-64
2023/12/20 02:27:40;;;;;;;5.30;1.43;;;5.80;99.90;;;;;;4997702;28;20587;-64
2023/12/20 02:30:11;;;;;;;3.97;1.80;;;5.80;99.90;;;;;;4994352;28;20488;-64
2023/12/20 02:32:39;;;;;;;6.53;2.00;;;5.80;99.90;;;;;;4997653;28;20504;-64
2023/12/20 02:35:07;;;;;;;8.27;1.80;;;5.80;99.90;;;;;;4996175;28;20504;-64
2023/12/20 02:37:35;;;;;;;8.57;2.03;;;5.80;99.90;;;;;;4997667;28;20831;-64
2023/12/20 02:40:05;;;;;;;6.40;2.03;;;5.80;99.90;;;;;;4984060;28;20568;-64
2023/12/20 02:42:33;;;;;;;8.70;1.70;;;5.80;99.90;;;;;;4982481;28;20801;-63
2023/12/20 02:45:01;;;;;;;5.17;1.73;;;5.90;99.90;;;;;;4981689;28;20473;-64
2023/12/20 02:47:30;;;;;;;8.90;1.87;;;5.90;99.90;;;;;;4980269;28;20537;-64
2023/12/20 02:49:58;;;;;;;6.00;1.87;;;5.90;99.90;;;;;;4981775;28;20509;-64
2023/12/20 02:52:26;;;;;;;7.53;2.00;;;5.90;99.90;;;;;;4981489;28;21080;-64
2023/12/20 02:54:54;;;;;;;7.93;2.33;;;5.90;99.90;;;;;;4975181;28;20461;-64
2023/12/20 02:57:24;;;;;;;5.47;2.00;;;5.90;99.90;;;;;;4981502;28;20473;-67
2023/12/20 02:59:52;;;;;;;6.23;2.00;;;5.90;99.90;;;;;;4982230;28;20892;-64
2023/12/20 03:02:20;;;;;;;4.73;2.07;;;5.90;99.90;;;;;;4980275;28;20493;-64
2023/12/20 03:04:48;;;;;;;6.00;1.90;;;5.90;99.90;;;;;;4980355;28;20495;-64
2023/12/20 03:07:16;;;;;;;8.50;2.40;;;5.90;99.90;;;;;;4978455;28;20821;-64
2023/12/20 03:09:44;;;;;;;4.23;1.90;;;6.00;99.90;;;;;;4980530;28;20481;-64
2023/12/20 03:12:33;;;;;;;6.63;1.77;;;6.00;99.90;;;;;;4982832;28;20871;-65
2023/12/20 03:15:01;;;;;;;7.03;1.83;;;6.00;99.90;;;;;;4981626;28;20475;-64
2023/12/20 03:17:29;;;;;;;5.57;1.70;;;6.00;99.90;;;;;;4983041;28;20480;-64
2023/12/20 03:19:57;;;;;;;6.73;1.90;;;6.00;99.90;;;;;;4985228;28;20489;-64
2023/12/20 03:22:25;;;;;;;8.10;3.17;;;5.90;99.90;;;;;;4984122;28;20490;-63
2023/12/20 03:24:53;;;;;;;2.20;1.57;;;6.00;99.90;;;;;;4976089;28;20469;-64
2023/12/20 03:27:21;;;;;;;4.43;1.80;;;5.90;99.90;;;;;;4979598;28;20480;-64
2023/12/20 03:29:50;;;;;;;7.77;2.10;;;5.90;99.90;;;;;;4989781;28;20496;-64
2023/12/20 03:32:18;;;;;;;5.23;1.93;;;5.90;99.90;;;;;;4999249;28;20595;-63
2023/12/20 03:34:46;;;;;;;5.27;1.73;;;5.90;99.90;;;;;;4999211;28;20480;-63
2023/12/20 03:37:14;;;;;;;6.23;1.80;;;5.90;99.90;;;;;;5000299;28;20477;-64
2023/12/20 03:39:43;;;;;;;7.00;2.20;;;5.90;99.90;;;;;;4997302;28;20496;-63
2023/12/20 03:42:10;;;;;;;6.77;1.80;;;5.90;99.90;;;;;;5002062;28;20476;-64
2023/12/20 03:44:39;;;;;;;3.20;1.77;;;5.90;99.90;;;;;;5000565;28;20665;-63
2023/12/20 03:47:09;;;;;;;6.00;1.80;;;5.90;99.90;;;;;;5001277;28;20552;-64
2023/12/20 03:49:38;;;;;;;5.50;1.97;;;5.90;99.90;;;;;;4998747;28;20594;-63
2023/12/20 03:52:06;;;;;;;7.03;1.90;;;5.90;99.90;;;;;;4999016;28;21010;-64
2023/12/20 03:54:35;;;;;;;5.90;1.60;;;5.90;99.90;;;;;;5000176;28;20484;-64
2023/12/20 03:57:04;;;;;;;2.30;1.97;;;5.90;99.90;;;;;;4997774;28;20483;-64
2023/12/20 03:59:36;;;;;;;7.50;1.70;;;5.90;99.90;;;;;;4998694;28;20590;-64
2023/12/20 04:02:04;;;;;;;7.10;2.17;;;5.90;99.90;;;;;;4994601;28;20464;-64
2023/12/20 04:04:33;;;;;;;5.00;1.53;;;5.90;99.90;;;;;;5000213;28;20473;-63
2023/12/20 04:07:01;;;;;;;8.33;2.40;;;5.90;99.90;;;;;;5000609;28;20481;-64
2023/12/20 04:09:29;;;;;;;3.73;2.00;;;6.00;99.90;;;;;;4991251;28;20496;-64
2023/12/20 04:11:57;;;;;;;8.50;2.00;;;6.00;99.90;;;;;;4977748;28;20637;-63
2023/12/20 04:14:25;;;;;;;11.13;2.03;;;5.90;99.90;;;;;;4979298;28;20516;-64
2023/12/20 04:16:53;;;;;;;7.50;2.20;;;5.90;99.90;;;;;;4978106;28;20975;-64
2023/12/20 04:19:21;;;;;;;5.73;1.90;;;5.90;99.90;;;;;;4978932;28;21019;-64
2023/12/20 04:21:51;;;;;;;3.33;1.60;;;5.90;99.90;;;;;;4979445;28;20598;-64
2023/12/20 04:24:19;;;;;;;7.23;2.07;;;5.90;99.90;;;;;;4980092;28;20979;-63
2023/12/20 04:26:47;;;;;;;5.60;2.13;;;5.90;99.90;;;;;;4980509;28;20480;-64
2023/12/20 04:29:15;;;;;;;7.10;2.03;;;5.90;99.90;;;;;;4985126;28;20484;-64
2023/12/20 04:31:43;;;;;;;6.47;2.00;;;5.90;99.90;;;;;;5000455;28;20472;-64
2023/12/20 04:34:11;;;;;;;8.40;2.40;;;5.90;99.90;;;;;;4999294;28;20485;-63
2023/12/20 04:36:39;;;;;;;4.77;1.80;;;5.90;99.90;;;;;;4999298;28;20583;-64
2023/12/20 04:39:08;;;;;;;6.90;2.60;;;5.90;99.90;;;;;;4998346;28;20500;-64
2023/12/20 04:41:36;;;;;;;10.30;3.03;;;5.90;99.90;;;;;;5000174;28;20488;-64
2023/12/20 04:44:05;;;;;;;8.70;2.00;;;5.90;99.90;;;;;;4997651;28;20557;-64
2023/12/20 04:46:33;;;;;;;7.57;2.00;;;5.90;99.90;;;;;;4997939;28;20490;-64
2023/12/20 04:49:01;;;;;;;4.47;2.33;;;5.90;99.90;;;;;;4996778;28;20476;-64
2023/12/20 04:51:29;;;;;;;10.17;2.40;;;5.90;99.90;;;;;;4997471;28;20509;-64
2023/12/20 04:53:57;;;;;;;6.57;2.03;;;5.90;99.90;;;;;;4999833;28;20507;-64
2023/12/20 04:56:26;;;;;;;3.33;1.80;;;5.90;99.90;;;;;;4995521;28;20989;-63
2023/12/20 04:58:54;;;;;;;6.20;2.17;;;5.90;99.90;;;;;;4998130;28;20910;-64
2023/12/20 05:01:22;;;;;;;8.03;2.47;;;5.90;99.90;;;;;;4998425;28;20479;-63
2023/12/20 05:03:50;;;;;;;6.07;1.97;;;5.90;99.90;;;;;;4999525;28;21024;-63
2023/12/20 05:06:18;;;;;;;8.27;3.70;;;5.90;99.90;;;;;;4998437;28;20468;-63
2023/12/20 05:08:46;;;;;;;7.77;2.17;;;5.90;99.90;;;;;;4996822;28;20578;-63
2023/12/20 05:11:15;;;;;;;7.67;2.30;;;6.00;99.90;;;;;;4996904;28;20810;-64
2023/12/20 05:13:46;;;;;;;6.93;2.33;;;6.00;99.90;;;;;;4997835;28;21078;-64
2023/12/20 05:16:18;;;;;;;5.53;2.10;;;6.00;99.90;;;;;;4995630;28;20881;-64
2023/12/20 05:18:49;;;;;;;6.83;2.10;;;6.00;99.90;;;;;;4995193;28;20488;-64
2023/12/20 05:21:17;;;;;;;9.27;3.00;;;6.00;99.90;;;;;;4992424;28;20573;-64
2023/12/20 05:23:45;;;;;;;3.70;1.83;;;6.00;99.90;;;;;;4996533;28;20464;-63
2023/12/20 05:26:12;;;;;;;6.17;2.60;;;6.00;99.90;;;;;;4992922;28;20484;-64
2023/12/20 05:28:40;;;;;;;7.60;2.70;;;6.00;99.90;;;;;;4997322;28;20488;-64
2023/12/20 05:31:10;;;;;;;13.70;2.93;;;6.00;99.90;;;;;;4998554;28;20477;-63
2023/12/20 05:33:39;;;;;;;12.17;2.60;;;6.00;99.90;;;;;;4996185;28;20571;-63
2023/12/20 05:36:11;;;;;;;6.70;2.50;;;6.00;99.90;;;;;;4996296;28;20468;-63
2023/12/20 05:38:39;;;;;;;5.87;2.57;;;6.00;99.90;;;;;;4995768;28;20504;-63
2023/12/20 05:41:07;;;;;;;5.93;3.67;;;6.10;99.90;;;;;;4995762;28;20556;-64
2023/12/20 05:43:34;;;;;;;9.70;2.93;;;6.10;99.90;;;;;;4997034;28;20565;-63
2023/12/20 05:46:02;;;;;;;5.57;3.10;;;6.00;99.90;;;;;;4994878;28;20476;-64
2023/12/20 05:48:32;;;;;;;7.93;2.53;;;6.10;99.90;;;;;;4997944;28;20499;-64
2023/12/20 05:51:00;;;;;;;6.37;2.40;;;6.00;99.90;;;;;;4993323;28;20495;-64
2023/12/20 05:53:28;;;;;;;9.40;2.90;;;6.00;99.90;;;;;;4987106;28;20707;-64
2023/12/20 05:55:56;;;;;;;10.13;3.00;;;6.00;99.90;;;;;;4997572;28;20469;-64
2023/12/20 05:58:24;;;;;;;5.47;2.20;;;6.10;99.90;;;;;;4997308;28;20556;-63
2023/12/20 06:00:52;;;;;;;5.73;2.30;;;6.10;99.90;;;;;;4996915;28;20504;-63
2023/12/20 06:03:20;;;;;;;6.33;3.20;;;6.10;99.90;;;;;;4994479;28;20460;-63
2023/12/20 06:05:49;;;;;;;6.07;2.20;;;6.10;99.90;;;;;;4997480;28;20472;-64
2023/12/20 06:08:19;;;;;;;5.93;2.30;;;6.10;99.90;;;;;;4995774;28;20588;-63
2023/12/20 06:10:47;;;;;;;6.83;2.53;;;6.10;99.90;;;;;;4993821;28;20484;-64
2023/12/20 06:13:15;;;;;;;7.83;2.63;;;6.10;99.90;;;;;;4998009;28;20492;-64
2023/12/20 06:15:43;;;;;;;6.60;2.60;;;6.10;99.90;;;;;;4996385;28;20481;-64
2023/12/20 06:18:11;;;;;;;6.30;2.10;;;6.10;99.90;;;;;;4996006;28;20468;-64
2023/12/20 06:20:39;;;;;;;9.23;2.30;;;6.10;99.90;;;;;;4994405;28;20494;-63
2023/12/20 06:23:09;;;;;;;6.70;2.73;;;6.10;99.90;;;;;;4996271;28;20617;-63
2023/12/20 06:25:37;;;;;;;5.40;2.83;;;6.10;99.90;;;;;;4996320;28;20555;-63
2023/12/20 06:28:06;;;;;;;5.83;2.10;;;6.10;99.90;;;;;;4989252;28;20481;-63
2023/12/20 06:30:34;;;;;;;12.23;2.97;;;6.10;99.90;;;;;;4982026;28;20496;-63
2023/12/20 06:33:02;;;;;;;9.33;3.00;;;6.10;99.90;;;;;;4977313;28;20476;-63
2023/12/20 06:35:30;;;;;;;8.70;2.50;;;6.20;99.90;;;;;;4991314;28;20472;-64
2023/12/20 06:38:02;;;;;;;6.97;2.33;;;6.10;99.90;;;;;;4989989;28;20989;-63
2023/12/20 06:40:32;;;;;;;7.30;2.40;;;6.10;99.90;;;;;;4993959;28;20605;-64
2023/12/20 06:43:00;;;;;;;7.77;2.43;;;6.20;99.90;;;;;;4992956;28;20476;-64
2023/12/20 06:45:39;;;;;;;4.57;2.07;;;6.20;99.90;;;;;;4986637;28;20486;-63
2023/12/20 06:48:08;;;;;;;8.33;2.50;;;6.20;99.90;;;;;;4991443;28;20488;-64
2023/12/20 06:50:39;;;;;;;11.50;2.90;;;6.20;99.90;;;;;;4995143;28;20488;-64
2023/12/20 06:53:08;;;;;;;5.83;2.63;;;6.20;99.90;;;;;;4989046;28;20456;-64
2023/12/20 06:55:38;;;;;;;6.87;2.50;;;6.20;99.90;;;;;;4993856;28;20486;-64
2023/12/20 06:58:06;;;;;;;8.43;2.63;;;6.20;99.90;;;;;;4994378;28;20546;-64
2023/12/20 07:00:34;;;;;;;8.67;2.50;;;6.20;99.90;;;;;;4974776;28;20489;-64
2023/12/20 07:03:02;;;;;;;10.17;2.60;;;6.20;99.90;;;;;;4974227;28;20976;-64
2023/12/20 07:05:30;;;;;;;10.37;2.47;;;6.20;99.90;;;;;;4976120;28;20916;-64
2023/12/20 07:07:58;;;;;;;6.27;2.07;;;6.20;99.90;;;;;;4978758;28;20561;-64
2023/12/20 07:10:26;;;;;;;6.53;1.93;;;6.20;99.90;;;;;;4976653;28;20500;-64
2023/12/20 07:12:56;;;;;;;8.20;2.53;;;6.20;99.90;;;;;;4977751;28;20532;-64
2023/12/20 07:15:24;;;;;;;6.27;3.30;;;6.20;99.90;;;;;;4977399;28;20947;-63
2023/12/20 07:17:52;;;;;;;8.10;2.33;;;6.20;99.90;;;;;;4976398;28;20845;-64
2023/12/20 07:20:20;;;;;;;5.70;2.33;;;6.30;99.90;;;;;;4989449;28;20495;-63
2023/12/20 07:22:48;;;;;;;8.33;2.30;;;6.20;99.90;;;;;;4995260;28;20496;-64
2023/12/20 07:25:16;;;;;;;12.63;3.00;;;6.20;99.90;;;;;;4997405;28;20477;-64
2023/12/20 07:27:44;;;;;;;7.77;2.90;;;6.20;99.90;;;;;;4999288;28;20575;-64
2023/12/20 07:30:15;;;;;;;11.20;3.00;;;6.20;99.90;;;;;;4996787;28;20571;-64
2023/12/20 07:32:43;;;;;;;7.40;2.67;;;6.30;99.90;;;;;;5000050;28;20473;-64
2023/12/20 07:35:11;;;;;;;10.70;3.23;;;6.30;99.90;;;;;;5001103;28;20506;-64
2023/12/20 07:37:39;;;;;;;7.40;3.40;;;6.30;99.90;;;;;;4997753;28;20909;-63
2023/12/20 07:40:08;;;;;;;9.50;2.77;;;6.30;99.90;;;;;;4997712;28;20531;-64
2023/12/20 07:42:37;;;;;;;12.30;2.90;;;6.30;99.90;;;;;;4999249;28;20485;-64
2023/12/20 07:45:05;;;;;;;9.53;2.93;;;6.30;99.90;;;;;;4999054;28;20484;-63
2023/12/20 07:47:35;;;;;;;5.73;2.63;;;6.30;99.90;;;;;;5001366;28;20567;-64
2023/12/20 07:50:03;;;;;;;7.17;2.87;;;6.30;99.90;;;;;;4998257;28;20515;-63
2023/12/20 07:52:31;;;;;;;7.37;2.07;;;6.30;99.90;;;;;;4999781;28;20480;-63
2023/12/20 07:54:59;;;;;;;10.07;2.73;;;6.30;99.90;;;;;;4997557;28;20592;-64
2023/12/20 07:57:29;;;;;;;12.07;3.27;;;6.40;99.90;;;;;;4998653;28;20476;-64
2023/12/20 07:59:57;;;;;;;12.00;3.23;;;6.40;99.90;;;;;;4998753;28;20547;-64
2023/12/20 08:02:25;;;;;;;5.33;2.33;;;6.40;99.90;;;;;;4999734;28;20564;-64
2023/12/20 08:04:55;;;;;;;8.30;3.00;;;6.40;99.90;;;;;;4999791;28;20492;-64
2023/12/20 08:07:23;;;;;;;6.40;2.70;;;6.40;99.90;;;;;;4999896;28;20481;-64
2023/12/20 08:09:52;;;;;;;8.87;3.00;;;6.40;99.90;;;;;;4998579;28;21884;-64
2023/12/20 08:12:20;;;;;;;9.10;2.60;;;6.50;99.90;;;;;;4999118;28;20481;-64
2023/12/20 08:14:48;;;;;;;7.90;2.70;;;6.50;99.90;;;;;;4996807;28;20519;-64
2023/12/20 08:17:18;;;;;;;8.33;3.63;;;6.50;99.90;;;;;;5000359;28;20625;-64
2023/12/20 08:19:46;;;;;;;7.00;2.63;;;6.50;99.90;;;;;;4999515;28;20481;-64
2023/12/20 08:22:16;;;;;;;6.00;2.60;;;6.50;99.90;;;;;;4996585;28;20460;-64
2023/12/20 08:24:44;;;;;;;8.30;2.97;;;6.50;99.90;;;;;;5001946;28;20465;-63
2023/12/20 08:27:12;;;;;;;14.37;3.33;;;6.50;99.90;;;;;;4998920;28;20884;-64
2023/12/20 08:29:40;;;;;;;12.97;3.53;;;6.50;99.90;;;;;;4998653;28;20582;-64
2023/12/20 08:32:08;;;;;;;10.97;3.43;;;6.50;99.90;;;;;;5000401;28;20572;-64
2023/12/20 08:34:36;;;;;;;11.40;3.20;;;6.50;99.90;;;;;;4999088;28;20524;-64
2023/12/20 08:37:04;;;;;;;6.50;2.63;;;6.60;99.90;;;;;;5001478;28;20473;-64
2023/12/20 08:39:34;;;;;;;9.20;3.40;;;6.60;99.90;;;;;;5000449;28;20477;-64
2023/12/20 08:42:02;;;;;;;8.33;2.90;;;6.60;99.90;;;;;;4999001;28;20560;-64
2023/12/20 08:44:30;;;;;;;6.70;2.73;;;6.60;99.90;;;;;;5000020;28;20504;-64
2023/12/20 08:46:58;;;;;;;9.53;3.13;;;6.70;99.90;;;;;;4999441;28;20954;-64
2023/12/20 08:49:26;;;;;;;8.70;3.00;;;6.70;99.90;;;;;;5001445;28;20473;-64
2023/12/20 08:51:54;;;;;;;11.17;3.20;;;6.70;99.90;;;;;;4998322;28;20973;-65
2023/12/20 08:54:22;;;;;;;9.70;3.70;;;6.80;99.90;;;;;;5000965;28;20467;-64
2023/12/20 08:56:52;;;;;;;8.30;2.63;;;6.80;99.90;;;;;;4999612;28;20922;-64
2023/12/20 08:59:19;;;;;;;8.97;2.53;;;6.80;99.90;;;;;;4997151;28;20554;-64
2023/12/20 09:01:48;;;;;;;7.80;2.43;;;6.80;99.90;;;;;;5000001;28;20475;-65
2023/12/20 09:04:16;;;;;;;8.87;3.07;;;6.70;99.90;;;;;;4999201;28;20866;-64
2023/12/20 09:06:44;;;;;;;6.17;2.57;;;6.70;99.90;;;;;;5002263;28;20475;-63
2023/12/20 09:09:13;;;;;;;11.07;3.00;;;6.70;99.90;;;;;;5001416;28;20551;-64
2023/12/20 09:11:42;;;;;;;6.20;2.40;;;6.70;99.90;;;;;;4996339;28;20511;-64
2023/12/20 09:14:11;;;;;;;5.37;2.93;;;6.80;99.90;;;;;;4999788;28;20531;-64
2023/12/20 09:16:39;;;;;;;6.07;2.10;;;6.70;99.90;;;;;;5000626;28;20487;-63
2023/12/20 09:19:07;;;;;;;7.37;2.40;;;6.70;99.90;;;;;;4995976;28;20516;-64
2023/12/20 09:21:35;;;;;;;9.27;2.33;;;6.70;99.90;;;;;;4999618;28;20481;-64
2023/12/20 09:24:03;;;;;;;8.13;3.10;;;6.60;99.90;;;;;;4999384;28;20940;-64
2023/12/20 09:26:31;;;;;;;6.90;2.20;;;6.60;99.90;;;;;;4998009;28;20479;-64
2023/12/20 09:28:59;;;;;;;6.83;2.00;;;6.60;99.90;;;;;;4997377;28;20480;-64
2023/12/20 09:31:29;;;;;;;6.03;1.70;;;6.50;99.90;;;;;;4998926;28;20851;-64
2023/12/20 09:33:57;;;;;;;3.00;1.50;;;6.50;99.90;;;;;;4998414;28;20485;-64
2023/12/20 09:36:25;;;;;;;5.50;1.93;;;6.50;99.90;;;;;;4999338;28;20524;-64
2023/12/20 09:38:54;;;;;;;2.30;1.57;;;6.50;99.90;;;;;;4999016;28;20528;-64
2023/12/20 09:41:22;;;;;;;2.60;1.50;;;6.50;99.90;;;;;;4998616;28;20556;-64
2023/12/20 09:43:52;;;;;;;1.80;1.10;;;6.50;99.90;;;;;;4999267;28;21000;-64
2023/12/20 09:46:25;;;;;;;1.70;1.00;;;6.50;99.90;;;;;;4998162;28;20555;-64
2023/12/20 09:48:55;;;;;;;1.07;0.70;;;6.50;99.90;;;;;;4997965;28;20518;-65
2023/12/20 09:51:24;;;;;;;0.90;0.60;;;6.50;99.90;;;;;;4999406;28;20473;-64
2023/12/20 09:53:55;;;;;;;1.13;0.80;;;6.50;99.90;;;;;;4998471;28;21000;-64
2023/12/20 09:56:23;;;;;;;1.00;0.50;;;6.50;99.90;;;;;;4992628;28;20586;-64
2023/12/20 09:58:51;;;;;;;1.13;0.63;;;6.40;99.90;;;;;;4997997;28;20566;-64
2023/12/20 10:01:19;;;;;;;1.90;0.70;;;6.30;99.90;;;;;;4995785;28;20484;-64
2023/12/20 10:03:48;;;;;;;1.50;0.70;;;6.20;99.90;;;;;;4997804;28;21215;-64
2023/12/20 10:06:17;;;;;;;1.97;0.60;;;6.20;99.90;;;;;;4998803;28;20465;-66
2023/12/20 10:08:45;;;;;;;1.13;0.60;;;6.20;99.90;;;;;;4999075;28;20595;-64
2023/12/20 10:11:14;;;;;;;2.83;1.33;;;6.10;99.90;;;;;;4995494;28;20476;-64
2023/12/20 10:13:42;;;;;;;2.23;0.90;;;6.10;99.90;;;;;;4998325;28;20485;-65
2023/12/20 10:16:10;;;;;;;2.57;0.80;;;6.10;99.90;;;;;;4996354;28;20493;-65
2023/12/20 10:18:38;;;;;;;2.30;0.80;;;6.10;99.90;;;;;;4998287;28;20502;-63
2023/12/20 10:21:09;;;;;;;1.83;1.00;;;6.00;99.90;;;;;;4997288;28;20482;-65
2023/12/20 10:23:40;;;;;;;0.70;0.60;;;6.00;99.90;;;;;;4997739;28;20469;-64
2023/12/20 10:26:09;;;;;;;2.53;1.10;;;6.00;99.90;;;;;;4992281;28;20627;-64
2023/12/20 10:28:37;;;;;;;1.83;0.70;;;6.00;99.90;;;;;;4995838;28;20493;-64
2023/12/20 10:31:06;;;;;;;1.97;0.57;;;6.00;99.90;;;;;;4975435;28;20481;-64
2023/12/20 10:33:34;;;;;;;1.30;0.60;;;6.00;99.90;;;;;;4979246;28;20519;-64
2023/12/20 10:36:03;;;;;;;1.90;0.70;;;6.00;99.90;;;;;;4980321;28;20567;-64
2023/12/20 10:38:31;;;;;;;1.97;1.57;;;6.00;99.90;;;;;;4978159;28;21262;-65
2023/12/20 10:41:05;;;;;;;1.80;0.80;;;6.00;99.90;;;;;;4991047;28;20506;-64
2023/12/20 10:43:34;;;;;;;3.93;0.80;;;6.00;99.90;;;;;;4998240;28;20527;-64
2023/12/20 10:46:04;;;;;;;4.13;0.97;;;6.00;99.90;;;;;;4996352;28;20551;-64
2023/12/20 10:48:34;;;;;;;4.57;1.40;;;6.00;99.90;;;;;;4994343;28;20492;-65
2023/12/20 10:51:02;;;;;;;3.53;0.80;;;6.00;99.90;;;;;;4995946;28;20508;-64
2023/12/20 10:53:31;;;;;;;5.27;1.20;;;5.90;99.90;;;;;;4997869;28;20578;-64
2023/12/20 10:56:03;;;;;;;1.43;0.80;;;5.90;99.90;;;;;;4994328;28;21431;-64
2023/12/20 10:58:34;;;;;;;2.30;1.00;;;5.90;99.90;;;;;;4999405;28;20572;-64
2023/12/20 11:01:03;;;;;;;2.50;0.90;;;5.90;99.90;;;;;;4997572;28;20496;-63
2023/12/20 11:03:35;;;;;;;2.43;1.20;;;5.90;99.90;;;;;;5002044;28;20479;-64
2023/12/20 11:06:11;;;;;;;4.17;1.30;;;5.90;99.90;;;;;;5000229;28;20555;-64
2023/12/20 11:08:48;;;;;;;5.27;1.37;;;5.90;99.90;;;;;;5001403;28;20495;-63
2023/12/20 11:11:26;;;;;;;5.70;1.67;;;5.90;99.90;;;;;;4996254;28;20923;-64
2023/12/20 11:14:00;;;;;;;2.63;1.40;;;5.80;99.90;;;;;;5000349;28;20469;-64
2023/12/20 11:16:28;;;;;;;2.70;1.20;;;5.90;99.90;;;;;;4999033;28;20498;-64
2023/12/20 11:19:08;;;;;;;5.20;1.30;;;5.80;99.90;;;;;;4999543;28;20492;-64
2023/12/20 11:21:37;;;;;;;7.33;1.37;;;5.80;99.90;;;;;;5001867;28;20914;-64
2023/12/20 11:24:06;;;;;;;2.67;1.20;;;5.80;99.90;;;;;;4996426;28;20504;-64
2023/12/20 11:26:35;;;;;;;2.60;1.20;;;5.70;99.90;;;;;;4999190;28;20576;-64
2023/12/20 11:29:30;;;;;;;1.90;0.50;;;5.70;99.90;;;;;;5000118;28;21024;-64
2023/12/20 11:31:58;;;;;;;2.23;0.80;;;5.60;99.90;;;;;;4992428;28;20556;-64
2023/12/20 11:34:29;;;;;;;0.70;0.60;;;5.60;99.90;;;;;;5000785;28;20849;-64
2023/12/20 11:37:01;;;;;;;1.07;0.60;;;5.60;99.90;;;;;;5001400;28;20507;-63
2023/12/20 11:39:29;;;;;;;2.13;0.67;;;5.60;99.90;;;;;;4999586;28;20577;-64
2023/12/20 11:42:05;;;;;;;1.17;0.60;;;5.60;99.90;;;;;;4999863;28;20993;-64
2023/12/20 11:44:34;;;;;;;2.00;1.00;;;5.60;99.90;;;;;;5000596;28;20500;-64
2023/12/20 11:47:02;;;;;;;3.40;1.00;;;5.60;99.90;;;;;;5000393;28;20555;-64
2023/12/20 11:49:30;;;;;;;3.03;1.20;;;5.60;99.90;;;;;;4998881;28;20484;-64
2023/12/20 11:52:00;;;;;;;5.27;1.43;;;5.60;99.90;;;;;;5000223;28;20508;-64
2023/12/20 11:54:28;;;;;;;4.13;0.90;;;5.60;99.90;;;;;;4997020;28;20550;-65
2023/12/20 11:56:56;;;;;;;5.13;1.40;;;5.70;99.90;;;;;;4999963;28;20587;-65
2023/12/20 11:59:26;;;;;;;5.77;1.70;;;5.80;99.90;;;;;;4998789;28;20571;-65
2023/12/20 12:01:56;;;;;;;5.93;1.50;;;5.80;99.90;;;;;;5000360;28;20500;-65
2023/12/20 12:04:24;;;;;;;6.13;1.80;;;5.80;99.90;;;;;;5006365;28;20877;-65
2023/12/20 12:06:52;;;;;;;4.80;1.73;;;5.80;99.90;;;;;;5004374;28;20476;-65
2023/12/20 12:09:20;;;;;;;5.00;1.60;;;5.80;99.90;;;;;;5001831;28;20500;-64
2023/12/20 12:11:48;;;;;;;6.90;1.70;;;5.90;99.90;;;;;;5005154;28;20476;-65
2023/12/20 12:14:17;;;;;;;3.43;1.53;;;5.90;99.90;;;;;;5002726;28;20559;-65
2023/12/20 12:16:46;;;;;;;5.10;1.70;;;6.10;99.90;;;;;;5005768;28;20503;-65
2023/12/20 12:19:21;;;;;;;5.90;1.80;;;6.10;99.90;;;;;;4997509;28;20584;-64
2023/12/20 12:21:50;;;;;;;5.27;1.77;;;6.20;99.90;;;;;;4994825;28;20591;-65
2023/12/20 12:24:22;;;;;;;10.33;3.40;;;6.30;99.90;;;;;;4998835;28;20575;-65
2023/12/20 12:26:53;;;;;;;3.97;1.87;;;6.50;99.90;;;;;;4999041;28;20464;-65
2023/12/20 12:29:21;;;;;;;8.07;1.97;;;6.50;99.90;;;;;;4999988;28;20496;-64
2023/12/20 12:31:51;;;;;;;9.43;2.50;;;6.60;99.90;;;;;;4997885;28;20468;-65
2023/12/20 12:34:19;;;;;;;7.00;2.00;;;6.70;99.90;;;;;;4998283;28;20606;-65
2023/12/20 12:36:48;;;;;;;5.87;1.70;;;6.90;99.90;;;;;;4995461;28;20580;-65
2023/12/20 12:39:18;;;;;;;8.20;2.13;;;7.00;99.90;;;;;;4995437;28;20480;-64
2023/12/20 12:41:46;;;;;;;6.33;2.20;;;7.10;99.90;;;;;;4992712;28;20477;-64
2023/12/20 12:44:14;;;;;;;8.23;2.03;;;7.10;99.90;;;;;;4994625;28;20511;-64
2023/12/20 12:46:45;;;;;;;11.23;2.30;;;7.10;99.90;;;;;;4991855;28;20582;-64
2023/12/20 12:49:15;;;;;;;9.50;2.93;;;7.20;99.90;;;;;;5000231;28;20477;-65
2023/12/20 12:51:43;;;;;;;6.57;1.93;;;7.20;99.90;;;;;;5001896;28;20820;-64
2023/12/20 12:54:13;;;;;;;8.63;2.20;;;7.20;99.90;;;;;;5001371;28;20484;-65
2023/12/20 12:56:41;;;;;;;10.90;4.03;;;7.10;99.90;;;;;;5000643;28;20558;-65
2023/12/20 12:59:09;;;;;;;7.10;3.20;;;7.00;99.90;;;;;;4996627;28;20919;-65
2023/12/20 13:01:38;;;;;;;8.33;2.57;;;7.00;99.90;;;;;;5000537;28;20476;-65
2023/12/20 13:04:10;;;;;;;5.77;2.00;;;7.00;99.90;;;;;;4998479;28;20565;-65